sensor_id;sensor_type;location;lat;lon;timestamp;P1;durP1;ratioP1;P2;durP2;ratioP2
37305;SDS011;23193;42.656;21.170;2023-07-16T00:00:37;22.48;;;11.27;;
37305;SDS011;23193;42.656;21.170;2023-07-16T00:03:04;30.48;;;11.30;;
37305;SDS011;23193;42.656;21.170;2023-07-16T00:05:30;23.80;;;10.63;;
37305;SDS011;23193;42.656;21.170;2023-07-16T00:07:56;21.52;;;10.70;;
37305;SDS011;23193;42.656;21.170;2023-07-16T00:10:22;23.38;;;10.98;;
37305;SDS011;23193;42.656;21.170;2023-07-16T00:12:48;20.65;;;11.27;;
37305;SDS011;23193;42.656;21.170;2023-07-16T00:15:14;20.85;;;10.73;;
37305;SDS011;23193;42.656;21.170;2023-07-16T00:17:40;25.63;;;11.00;;
37305;SDS011;23193;42.656;21.170;2023-07-16T00:20:07;21.50;;;11.52;;
37305;SDS011;23193;42.656;21.170;2023-07-16T00:22:34;14.55;;;10.82;;
37305;SDS011;23193;42.656;21.170;2023-07-16T00:25:00;18.10;;;10.45;;
37305;SDS011;23193;42.656;21.170;2023-07-16T00:27:26;23.45;;;10.82;;
37305;SDS011;23193;42.656;21.170;2023-07-16T00:29:52;21.67;;;10.55;;
37305;SDS011;23193;42.656;21.170;2023-07-16T00:32:19;19.63;;;11.32;;
37305;SDS011;23193;42.656;21.170;2023-07-16T00:34:45;21.05;;;11.15;;
37305;SDS011;23193;42.656;21.170;2023-07-16T00:37:11;19.63;;;11.02;;
37305;SDS011;23193;42.656;21.170;2023-07-16T00:39:37;21.95;;;10.77;;
37305;SDS011;23193;42.656;21.170;2023-07-16T00:42:03;22.65;;;10.63;;
37305;SDS011;23193;42.656;21.170;2023-07-16T00:44:29;19.95;;;10.32;;
37305;SDS011;23193;42.656;21.170;2023-07-16T00:46:55;13.98;;;9.65;;
37305;SDS011;23193;42.656;21.170;2023-07-16T00:49:22;16.45;;;9.60;;
37305;SDS011;23193;42.656;21.170;2023-07-16T00:51:49;18.20;;;10.25;;
37305;SDS011;23193;42.656;21.170;2023-07-16T00:54:15;13.85;;;9.65;;
37305;SDS011;23193;42.656;21.170;2023-07-16T00:56:41;20.92;;;10.18;;
37305;SDS011;23193;42.656;21.170;2023-07-16T00:59:07;20.15;;;10.35;;
37305;SDS011;23193;42.656;21.170;2023-07-16T01:01:34;13.50;;;9.80;;
37305;SDS011;23193;42.656;21.170;2023-07-16T01:04:00;15.55;;;9.60;;
37305;SDS011;23193;42.656;21.170;2023-07-16T01:06:45;18.50;;;9.70;;
37305;SDS011;23193;42.656;21.170;2023-07-16T01:09:18;22.40;;;10.50;;
37305;SDS011;23193;42.656;21.170;2023-07-16T01:11:45;21.13;;;9.43;;
37305;SDS011;23193;42.656;21.170;2023-07-16T01:14:12;18.90;;;10.82;;
37305;SDS011;23193;42.656;21.170;2023-07-16T01:16:40;19.13;;;10.60;;
37305;SDS011;23193;42.656;21.170;2023-07-16T01:19:06;26.77;;;10.35;;
37305;SDS011;23193;42.656;21.170;2023-07-16T01:21:39;18.50;;;9.75;;
37305;SDS011;23193;42.656;21.170;2023-07-16T01:26:51;20.48;;;10.50;;
37305;SDS011;23193;42.656;21.170;2023-07-16T01:31:55;20.88;;;9.70;;
37305;SDS011;23193;42.656;21.170;2023-07-16T01:34:22;19.83;;;10.05;;
37305;SDS011;23193;42.656;21.170;2023-07-16T01:36:50;19.63;;;9.73;;
37305;SDS011;23193;42.656;21.170;2023-07-16T01:39:16;22.67;;;10.13;;
37305;SDS011;23193;42.656;21.170;2023-07-16T01:41:43;20.48;;;10.23;;
37305;SDS011;23193;42.656;21.170;2023-07-16T01:44:09;24.33;;;10.43;;
37305;SDS011;23193;42.656;21.170;2023-07-16T01:46:35;24.15;;;10.55;;
37305;SDS011;23193;42.656;21.170;2023-07-16T01:49:01;17.95;;;10.32;;
37305;SDS011;23193;42.656;21.170;2023-07-16T01:51:27;23.45;;;10.77;;
37305;SDS011;23193;42.656;21.170;2023-07-16T01:53:53;27.75;;;10.75;;
37305;SDS011;23193;42.656;21.170;2023-07-16T01:56:20;17.60;;;9.50;;
37305;SDS011;23193;42.656;21.170;2023-07-16T01:58:46;16.15;;;10.55;;
37305;SDS011;23193;42.656;21.170;2023-07-16T02:01:13;27.30;;;10.88;;
37305;SDS011;23193;42.656;21.170;2023-07-16T02:03:40;19.35;;;10.45;;
37305;SDS011;23193;42.656;21.170;2023-07-16T02:06:06;22.75;;;11.48;;
37305;SDS011;23193;42.656;21.170;2023-07-16T02:08:32;17.00;;;9.80;;
37305;SDS011;23193;42.656;21.170;2023-07-16T02:10:58;16.88;;;9.70;;
37305;SDS011;23193;42.656;21.170;2023-07-16T02:13:24;19.40;;;10.05;;
37305;SDS011;23193;42.656;21.170;2023-07-16T02:15:50;15.95;;;9.68;;
37305;SDS011;23193;42.656;21.170;2023-07-16T02:18:16;18.55;;;10.52;;
37305;SDS011;23193;42.656;21.170;2023-07-16T02:20:43;22.73;;;9.85;;
37305;SDS011;23193;42.656;21.170;2023-07-16T02:23:09;20.83;;;9.55;;
37305;SDS011;23193;42.656;21.170;2023-07-16T02:25:35;21.08;;;10.00;;
37305;SDS011;23193;42.656;21.170;2023-07-16T02:28:01;19.38;;;10.15;;
37305;SDS011;23193;42.656;21.170;2023-07-16T02:30:27;16.88;;;10.43;;
37305;SDS011;23193;42.656;21.170;2023-07-16T02:32:53;18.27;;;10.00;;
37305;SDS011;23193;42.656;21.170;2023-07-16T02:35:20;22.15;;;10.77;;
37305;SDS011;23193;42.656;21.170;2023-07-16T02:37:46;20.67;;;10.13;;
37305;SDS011;23193;42.656;21.170;2023-07-16T02:40:12;16.20;;;10.07;;
37305;SDS011;23193;42.656;21.170;2023-07-16T02:42:38;14.82;;;9.18;;
37305;SDS011;23193;42.656;21.170;2023-07-16T02:45:05;22.60;;;9.45;;
37305;SDS011;23193;42.656;21.170;2023-07-16T02:47:31;22.92;;;10.38;;
37305;SDS011;23193;42.656;21.170;2023-07-16T02:49:57;12.93;;;9.88;;
37305;SDS011;23193;42.656;21.170;2023-07-16T02:52:23;17.33;;;9.90;;
37305;SDS011;23193;42.656;21.170;2023-07-16T02:54:49;14.68;;;9.93;;
37305;SDS011;23193;42.656;21.170;2023-07-16T02:57:15;25.30;;;10.30;;
37305;SDS011;23193;42.656;21.170;2023-07-16T02:59:41;18.42;;;10.38;;
37305;SDS011;23193;42.656;21.170;2023-07-16T03:02:07;26.85;;;10.77;;
37305;SDS011;23193;42.656;21.170;2023-07-16T03:04:34;19.80;;;10.20;;
37305;SDS011;23193;42.656;21.170;2023-07-16T03:07:00;18.83;;;11.02;;
37305;SDS011;23193;42.656;21.170;2023-07-16T03:09:26;16.40;;;10.43;;
37305;SDS011;23193;42.656;21.170;2023-07-16T03:11:52;16.45;;;9.93;;
37305;SDS011;23193;42.656;21.170;2023-07-16T03:14:18;16.90;;;10.70;;
37305;SDS011;23193;42.656;21.170;2023-07-16T03:16:44;14.70;;;9.98;;
37305;SDS011;23193;42.656;21.170;2023-07-16T03:19:10;15.30;;;10.82;;
37305;SDS011;23193;42.656;21.170;2023-07-16T03:21:36;19.33;;;11.00;;
37305;SDS011;23193;42.656;21.170;2023-07-16T03:24:03;22.55;;;11.45;;
37305;SDS011;23193;42.656;21.170;2023-07-16T03:26:29;25.27;;;11.63;;
37305;SDS011;23193;42.656;21.170;2023-07-16T03:28:55;23.50;;;14.57;;
37305;SDS011;23193;42.656;21.170;2023-07-16T03:31:22;23.00;;;13.55;;
37305;SDS011;23193;42.656;21.170;2023-07-16T03:33:48;27.13;;;15.45;;
37305;SDS011;23193;42.656;21.170;2023-07-16T03:36:14;25.00;;;15.88;;
37305;SDS011;23193;42.656;21.170;2023-07-16T03:38:40;24.65;;;16.13;;
37305;SDS011;23193;42.656;21.170;2023-07-16T03:41:06;21.85;;;15.32;;
37305;SDS011;23193;42.656;21.170;2023-07-16T03:43:32;21.25;;;15.20;;
37305;SDS011;23193;42.656;21.170;2023-07-16T03:45:59;26.42;;;16.05;;
37305;SDS011;23193;42.656;21.170;2023-07-16T03:48:25;29.83;;;18.15;;
37305;SDS011;23193;42.656;21.170;2023-07-16T03:50:51;30.35;;;18.75;;
37305;SDS011;23193;42.656;21.170;2023-07-16T03:53:17;31.63;;;21.58;;
37305;SDS011;23193;42.656;21.170;2023-07-16T03:55:43;38.33;;;22.77;;
37305;SDS011;23193;42.656;21.170;2023-07-16T03:58:09;36.58;;;20.42;;
37305;SDS011;23193;42.656;21.170;2023-07-16T04:00:35;34.75;;;18.83;;
37305;SDS011;23193;42.656;21.170;2023-07-16T04:03:01;27.70;;;16.08;;
37305;SDS011;23193;42.656;21.170;2023-07-16T04:05:28;33.42;;;16.58;;
37305;SDS011;23193;42.656;21.170;2023-07-16T04:07:54;22.10;;;14.55;;
37305;SDS011;23193;42.656;21.170;2023-07-16T04:10:20;26.90;;;15.20;;
37305;SDS011;23193;42.656;21.170;2023-07-16T04:12:46;29.88;;;15.77;;
37305;SDS011;23193;42.656;21.170;2023-07-16T04:15:12;20.40;;;13.40;;
37305;SDS011;23193;42.656;21.170;2023-07-16T04:17:38;19.08;;;12.73;;
37305;SDS011;23193;42.656;21.170;2023-07-16T04:20:04;26.88;;;12.88;;
37305;SDS011;23193;42.656;21.170;2023-07-16T04:22:32;21.92;;;12.43;;
37305;SDS011;23193;42.656;21.170;2023-07-16T04:24:58;27.35;;;12.38;;
37305;SDS011;23193;42.656;21.170;2023-07-16T04:27:24;18.85;;;12.27;;
37305;SDS011;23193;42.656;21.170;2023-07-16T04:29:50;20.02;;;12.18;;
37305;SDS011;23193;42.656;21.170;2023-07-16T04:32:17;20.33;;;11.30;;
37305;SDS011;23193;42.656;21.170;2023-07-16T04:34:43;23.73;;;11.57;;
37305;SDS011;23193;42.656;21.170;2023-07-16T04:37:09;21.65;;;11.18;;
37305;SDS011;23193;42.656;21.170;2023-07-16T04:39:35;18.65;;;11.68;;
37305;SDS011;23193;42.656;21.170;2023-07-16T04:42:01;20.73;;;12.38;;
37305;SDS011;23193;42.656;21.170;2023-07-16T04:44:28;23.80;;;12.00;;
37305;SDS011;23193;42.656;21.170;2023-07-16T04:46:54;25.20;;;14.20;;
37305;SDS011;23193;42.656;21.170;2023-07-16T04:49:20;25.33;;;16.38;;
37305;SDS011;23193;42.656;21.170;2023-07-16T04:51:46;24.58;;;14.50;;
37305;SDS011;23193;42.656;21.170;2023-07-16T04:54:12;32.17;;;15.40;;
37305;SDS011;23193;42.656;21.170;2023-07-16T04:56:38;29.85;;;16.20;;
37305;SDS011;23193;42.656;21.170;2023-07-16T04:59:05;22.73;;;13.73;;
37305;SDS011;23193;42.656;21.170;2023-07-16T05:01:31;18.85;;;12.52;;
37305;SDS011;23193;42.656;21.170;2023-07-16T05:03:57;21.80;;;13.60;;
37305;SDS011;23193;42.656;21.170;2023-07-16T05:06:23;20.42;;;12.32;;
37305;SDS011;23193;42.656;21.170;2023-07-16T05:08:49;27.80;;;12.63;;
37305;SDS011;23193;42.656;21.170;2023-07-16T05:11:15;23.33;;;12.85;;
37305;SDS011;23193;42.656;21.170;2023-07-16T05:13:41;19.17;;;12.30;;
37305;SDS011;23193;42.656;21.170;2023-07-16T05:16:08;26.63;;;12.43;;
37305;SDS011;23193;42.656;21.170;2023-07-16T05:18:34;21.98;;;12.25;;
37305;SDS011;23193;42.656;21.170;2023-07-16T05:21:02;22.65;;;12.63;;
37305;SDS011;23193;42.656;21.170;2023-07-16T05:23:28;26.83;;;13.50;;
37305;SDS011;23193;42.656;21.170;2023-07-16T05:25:54;30.17;;;13.57;;
37305;SDS011;23193;42.656;21.170;2023-07-16T05:28:20;23.77;;;13.30;;
37305;SDS011;23193;42.656;21.170;2023-07-16T05:30:47;28.40;;;13.35;;
37305;SDS011;23193;42.656;21.170;2023-07-16T05:33:13;24.58;;;12.98;;
37305;SDS011;23193;42.656;21.170;2023-07-16T05:35:39;19.60;;;12.90;;
37305;SDS011;23193;42.656;21.170;2023-07-16T05:38:05;29.02;;;13.13;;
37305;SDS011;23193;42.656;21.170;2023-07-16T05:40:32;19.73;;;12.05;;
37305;SDS011;23193;42.656;21.170;2023-07-16T05:42:58;28.45;;;14.10;;
37305;SDS011;23193;42.656;21.170;2023-07-16T05:45:24;20.88;;;12.10;;
37305;SDS011;23193;42.656;21.170;2023-07-16T05:47:50;22.83;;;12.73;;
37305;SDS011;23193;42.656;21.170;2023-07-16T05:50:17;25.23;;;11.82;;
37305;SDS011;23193;42.656;21.170;2023-07-16T05:52:43;25.25;;;11.93;;
37305;SDS011;23193;42.656;21.170;2023-07-16T05:55:10;21.88;;;12.93;;
37305;SDS011;23193;42.656;21.170;2023-07-16T05:57:36;22.90;;;12.07;;
37305;SDS011;23193;42.656;21.170;2023-07-16T06:00:02;20.25;;;11.57;;
37305;SDS011;23193;42.656;21.170;2023-07-16T06:02:29;17.30;;;10.98;;
37305;SDS011;23193;42.656;21.170;2023-07-16T06:04:56;21.58;;;11.73;;
37305;SDS011;23193;42.656;21.170;2023-07-16T06:07:22;24.50;;;13.10;;
37305;SDS011;23193;42.656;21.170;2023-07-16T06:09:48;26.33;;;12.35;;
37305;SDS011;23193;42.656;21.170;2023-07-16T06:12:14;20.80;;;12.63;;
37305;SDS011;23193;42.656;21.170;2023-07-16T06:14:40;19.95;;;11.75;;
37305;SDS011;23193;42.656;21.170;2023-07-16T06:17:06;27.63;;;12.38;;
37305;SDS011;23193;42.656;21.170;2023-07-16T06:19:32;24.33;;;12.90;;
37305;SDS011;23193;42.656;21.170;2023-07-16T06:21:58;18.40;;;12.30;;
37305;SDS011;23193;42.656;21.170;2023-07-16T06:24:24;24.10;;;12.48;;
37305;SDS011;23193;42.656;21.170;2023-07-16T06:26:51;28.65;;;12.10;;
37305;SDS011;23193;42.656;21.170;2023-07-16T06:29:17;22.38;;;11.70;;
37305;SDS011;23193;42.656;21.170;2023-07-16T06:31:53;19.98;;;12.10;;
37305;SDS011;23193;42.656;21.170;2023-07-16T06:34:20;28.30;;;11.52;;
37305;SDS011;23193;42.656;21.170;2023-07-16T06:36:46;25.02;;;12.98;;
37305;SDS011;23193;42.656;21.170;2023-07-16T06:39:12;21.70;;;12.02;;
37305;SDS011;23193;42.656;21.170;2023-07-16T06:41:38;25.17;;;12.30;;
37305;SDS011;23193;42.656;21.170;2023-07-16T06:44:05;26.52;;;13.02;;
37305;SDS011;23193;42.656;21.170;2023-07-16T06:46:31;30.05;;;12.15;;
37305;SDS011;23193;42.656;21.170;2023-07-16T06:48:57;27.35;;;11.63;;
37305;SDS011;23193;42.656;21.170;2023-07-16T06:51:24;31.58;;;11.85;;
37305;SDS011;23193;42.656;21.170;2023-07-16T06:53:50;29.80;;;12.15;;
37305;SDS011;23193;42.656;21.170;2023-07-16T06:56:16;21.05;;;11.50;;
37305;SDS011;23193;42.656;21.170;2023-07-16T06:58:42;41.53;;;13.50;;
37305;SDS011;23193;42.656;21.170;2023-07-16T07:01:08;26.00;;;11.68;;
37305;SDS011;23193;42.656;21.170;2023-07-16T07:03:34;26.10;;;11.60;;
37305;SDS011;23193;42.656;21.170;2023-07-16T07:06:03;32.55;;;12.27;;
37305;SDS011;23193;42.656;21.170;2023-07-16T07:08:30;33.17;;;12.98;;
37305;SDS011;23193;42.656;21.170;2023-07-16T07:10:56;29.73;;;11.85;;
37305;SDS011;23193;42.656;21.170;2023-07-16T07:13:23;24.35;;;11.88;;
37305;SDS011;23193;42.656;21.170;2023-07-16T07:15:50;19.83;;;11.38;;
37305;SDS011;23193;42.656;21.170;2023-07-16T07:18:16;27.08;;;11.25;;
37305;SDS011;23193;42.656;21.170;2023-07-16T07:20:42;20.88;;;12.30;;
37305;SDS011;23193;42.656;21.170;2023-07-16T07:23:08;27.08;;;12.30;;
37305;SDS011;23193;42.656;21.170;2023-07-16T07:25:34;18.83;;;10.88;;
37305;SDS011;23193;42.656;21.170;2023-07-16T07:28:00;18.33;;;10.75;;
37305;SDS011;23193;42.656;21.170;2023-07-16T07:30:26;21.90;;;11.35;;
37305;SDS011;23193;42.656;21.170;2023-07-16T07:32:53;21.67;;;11.38;;
37305;SDS011;23193;42.656;21.170;2023-07-16T07:35:19;23.23;;;11.98;;
37305;SDS011;23193;42.656;21.170;2023-07-16T07:37:45;24.95;;;12.15;;
37305;SDS011;23193;42.656;21.170;2023-07-16T07:40:11;23.55;;;11.00;;
37305;SDS011;23193;42.656;21.170;2023-07-16T07:42:38;19.63;;;11.23;;
37305;SDS011;23193;42.656;21.170;2023-07-16T07:45:04;19.67;;;10.45;;
37305;SDS011;23193;42.656;21.170;2023-07-16T07:47:30;42.80;;;12.85;;
37305;SDS011;23193;42.656;21.170;2023-07-16T07:49:56;21.30;;;11.13;;
37305;SDS011;23193;42.656;21.170;2023-07-16T07:52:22;22.90;;;11.15;;
37305;SDS011;23193;42.656;21.170;2023-07-16T07:54:49;21.38;;;11.02;;
37305;SDS011;23193;42.656;21.170;2023-07-16T07:57:15;18.85;;;10.88;;
37305;SDS011;23193;42.656;21.170;2023-07-16T07:59:41;26.70;;;11.60;;
37305;SDS011;23193;42.656;21.170;2023-07-16T08:02:07;26.88;;;10.75;;
37305;SDS011;23193;42.656;21.170;2023-07-16T08:04:33;21.48;;;11.15;;
37305;SDS011;23193;42.656;21.170;2023-07-16T08:06:59;19.20;;;10.70;;
37305;SDS011;23193;42.656;21.170;2023-07-16T08:09:26;21.10;;;11.45;;
37305;SDS011;23193;42.656;21.170;2023-07-16T08:11:52;19.88;;;11.52;;
37305;SDS011;23193;42.656;21.170;2023-07-16T08:14:18;21.05;;;10.15;;
37305;SDS011;23193;42.656;21.170;2023-07-16T08:16:44;19.48;;;10.70;;
37305;SDS011;23193;42.656;21.170;2023-07-16T08:19:11;25.67;;;10.90;;
37305;SDS011;23193;42.656;21.170;2023-07-16T08:21:37;19.90;;;10.75;;
37305;SDS011;23193;42.656;21.170;2023-07-16T08:24:06;27.20;;;12.35;;
37305;SDS011;23193;42.656;21.170;2023-07-16T08:26:32;27.83;;;11.48;;
37305;SDS011;23193;42.656;21.170;2023-07-16T08:28:58;22.55;;;11.15;;
37305;SDS011;23193;42.656;21.170;2023-07-16T08:31:26;18.83;;;10.75;;
37305;SDS011;23193;42.656;21.170;2023-07-16T08:33:53;32.75;;;11.73;;
37305;SDS011;23193;42.656;21.170;2023-07-16T08:36:19;22.05;;;11.23;;
37305;SDS011;23193;42.656;21.170;2023-07-16T08:38:45;22.70;;;10.70;;
37305;SDS011;23193;42.656;21.170;2023-07-16T08:41:11;22.65;;;10.93;;
37305;SDS011;23193;42.656;21.170;2023-07-16T08:43:37;23.25;;;11.13;;
37305;SDS011;23193;42.656;21.170;2023-07-16T08:46:05;32.45;;;11.18;;
37305;SDS011;23193;42.656;21.170;2023-07-16T08:48:31;27.60;;;10.68;;
37305;SDS011;23193;42.656;21.170;2023-07-16T08:50:57;19.98;;;11.10;;
37305;SDS011;23193;42.656;21.170;2023-07-16T08:53:25;26.17;;;11.45;;
37305;SDS011;23193;42.656;21.170;2023-07-16T08:55:51;20.65;;;11.45;;
37305;SDS011;23193;42.656;21.170;2023-07-16T08:58:17;26.85;;;10.73;;
37305;SDS011;23193;42.656;21.170;2023-07-16T09:00:44;26.55;;;12.55;;
37305;SDS011;23193;42.656;21.170;2023-07-16T09:03:11;28.35;;;11.15;;
37305;SDS011;23193;42.656;21.170;2023-07-16T09:05:44;24.25;;;11.35;;
37305;SDS011;23193;42.656;21.170;2023-07-16T09:08:10;19.63;;;11.13;;
37305;SDS011;23193;42.656;21.170;2023-07-16T09:10:39;23.55;;;11.30;;
37305;SDS011;23193;42.656;21.170;2023-07-16T09:13:05;34.97;;;11.85;;
37305;SDS011;23193;42.656;21.170;2023-07-16T09:15:31;25.55;;;11.52;;
37305;SDS011;23193;42.656;21.170;2023-07-16T09:17:59;27.35;;;11.32;;
37305;SDS011;23193;42.656;21.170;2023-07-16T09:20:26;36.15;;;11.30;;
37305;SDS011;23193;42.656;21.170;2023-07-16T09:22:58;30.58;;;10.80;;
37305;SDS011;23193;42.656;21.170;2023-07-16T09:25:25;23.65;;;10.85;;
37305;SDS011;23193;42.656;21.170;2023-07-16T09:27:52;37.42;;;12.23;;
37305;SDS011;23193;42.656;21.170;2023-07-16T09:30:18;32.30;;;11.52;;
37305;SDS011;23193;42.656;21.170;2023-07-16T09:32:44;21.02;;;10.18;;
37305;SDS011;23193;42.656;21.170;2023-07-16T09:35:14;21.42;;;10.55;;
37305;SDS011;23193;42.656;21.170;2023-07-16T09:37:41;20.47;;;10.83;;
37305;SDS011;23193;42.656;21.170;2023-07-16T09:40:08;21.85;;;10.32;;
37305;SDS011;23193;42.656;21.170;2023-07-16T09:42:38;24.30;;;13.13;;
37305;SDS011;23193;42.656;21.170;2023-07-16T09:45:22;22.65;;;10.38;;
37305;SDS011;23193;42.656;21.170;2023-07-16T09:47:48;16.00;;;10.40;;
37305;SDS011;23193;42.656;21.170;2023-07-16T09:50:15;23.45;;;9.98;;
37305;SDS011;23193;42.656;21.170;2023-07-16T09:52:41;20.42;;;10.63;;
37305;SDS011;23193;42.656;21.170;2023-07-16T09:55:08;27.20;;;11.50;;
37305;SDS011;23193;42.656;21.170;2023-07-16T09:57:35;21.58;;;9.52;;
37305;SDS011;23193;42.656;21.170;2023-07-16T10:00:02;21.40;;;10.55;;
37305;SDS011;23193;42.656;21.170;2023-07-16T10:02:32;25.95;;;10.00;;
37305;SDS011;23193;42.656;21.170;2023-07-16T10:04:58;21.35;;;10.10;;
37305;SDS011;23193;42.656;21.170;2023-07-16T10:07:25;19.08;;;10.30;;
37305;SDS011;23193;42.656;21.170;2023-07-16T10:09:55;26.95;;;10.18;;
37305;SDS011;23193;42.656;21.170;2023-07-16T10:14:48;31.70;;;11.32;;
37305;SDS011;23193;42.656;21.170;2023-07-16T10:17:16;18.50;;;9.50;;
37305;SDS011;23193;42.656;21.170;2023-07-16T10:19:54;20.50;;;9.52;;
37305;SDS011;23193;42.656;21.170;2023-07-16T10:22:58;18.90;;;9.95;;
37305;SDS011;23193;42.656;21.170;2023-07-16T10:27:43;24.55;;;9.75;;
37305;SDS011;23193;42.656;21.170;2023-07-16T10:30:10;22.33;;;9.30;;
37305;SDS011;23193;42.656;21.170;2023-07-16T10:32:36;26.38;;;8.88;;
37305;SDS011;23193;42.656;21.170;2023-07-16T10:35:03;22.70;;;9.48;;
37305;SDS011;23193;42.656;21.170;2023-07-16T10:37:30;18.10;;;8.80;;
37305;SDS011;23193;42.656;21.170;2023-07-16T10:39:58;19.83;;;9.10;;
37305;SDS011;23193;42.656;21.170;2023-07-16T10:42:24;25.17;;;9.60;;
37305;SDS011;23193;42.656;21.170;2023-07-16T10:44:51;17.15;;;9.00;;
37305;SDS011;23193;42.656;21.170;2023-07-16T10:47:23;25.20;;;9.00;;
37305;SDS011;23193;42.656;21.170;2023-07-16T10:49:49;25.83;;;9.10;;
37305;SDS011;23193;42.656;21.170;2023-07-16T10:52:17;17.52;;;8.70;;
37305;SDS011;23193;42.656;21.170;2023-07-16T10:54:43;17.38;;;8.63;;
37305;SDS011;23193;42.656;21.170;2023-07-16T10:57:10;19.80;;;8.70;;
37305;SDS011;23193;42.656;21.170;2023-07-16T10:59:38;15.82;;;8.77;;
37305;SDS011;23193;42.656;21.170;2023-07-16T11:02:08;18.52;;;8.73;;
37305;SDS011;23193;42.656;21.170;2023-07-16T11:04:35;25.10;;;9.35;;
37305;SDS011;23193;42.656;21.170;2023-07-16T11:07:07;18.67;;;8.57;;
37305;SDS011;23193;42.656;21.170;2023-07-16T11:09:34;34.05;;;10.30;;
37305;SDS011;23193;42.656;21.170;2023-07-16T11:12:07;18.73;;;8.90;;
37305;SDS011;23193;42.656;21.170;2023-07-16T11:14:33;21.85;;;8.38;;
37305;SDS011;23193;42.656;21.170;2023-07-16T11:17:03;23.83;;;8.32;;
37305;SDS011;23193;42.656;21.170;2023-07-16T11:19:31;25.38;;;9.27;;
37305;SDS011;23193;42.656;21.170;2023-07-16T11:21:57;15.25;;;7.85;;
37305;SDS011;23193;42.656;21.170;2023-07-16T11:24:23;20.63;;;8.75;;
37305;SDS011;23193;42.656;21.170;2023-07-16T11:26:52;24.40;;;8.13;;
37305;SDS011;23193;42.656;21.170;2023-07-16T11:29:20;19.25;;;9.23;;
37305;SDS011;23193;42.656;21.170;2023-07-16T11:31:51;26.55;;;8.30;;
37305;SDS011;23193;42.656;21.170;2023-07-16T11:34:19;22.83;;;8.63;;
37305;SDS011;23193;42.656;21.170;2023-07-16T11:36:45;17.00;;;7.68;;
37305;SDS011;23193;42.656;21.170;2023-07-16T11:39:12;21.80;;;7.50;;
37305;SDS011;23193;42.656;21.170;2023-07-16T11:41:38;28.13;;;7.90;;
37305;SDS011;23193;42.656;21.170;2023-07-16T11:44:04;18.67;;;7.38;;
37305;SDS011;23193;42.656;21.170;2023-07-16T11:46:33;20.65;;;6.20;;
37305;SDS011;23193;42.656;21.170;2023-07-16T11:49:00;25.02;;;7.05;;
37305;SDS011;23193;42.656;21.170;2023-07-16T11:51:26;33.70;;;7.55;;
37305;SDS011;23193;42.656;21.170;2023-07-16T11:53:53;24.83;;;7.03;;
37305;SDS011;23193;42.656;21.170;2023-07-16T11:56:19;21.23;;;6.78;;
37305;SDS011;23193;42.656;21.170;2023-07-16T11:58:46;22.58;;;7.18;;
37305;SDS011;23193;42.656;21.170;2023-07-16T12:01:12;25.30;;;7.07;;
37305;SDS011;23193;42.656;21.170;2023-07-16T12:03:39;16.10;;;8.60;;
37305;SDS011;23193;42.656;21.170;2023-07-16T12:06:06;26.23;;;9.98;;
37305;SDS011;23193;42.656;21.170;2023-07-16T12:08:32;23.05;;;7.93;;
37305;SDS011;23193;42.656;21.170;2023-07-16T12:10:58;20.08;;;7.35;;
37305;SDS011;23193;42.656;21.170;2023-07-16T12:13:24;14.38;;;7.05;;
37305;SDS011;23193;42.656;21.170;2023-07-16T12:15:50;20.33;;;7.28;;
37305;SDS011;23193;42.656;21.170;2023-07-16T12:18:16;24.67;;;7.80;;
37305;SDS011;23193;42.656;21.170;2023-07-16T12:20:43;16.10;;;7.90;;
37305;SDS011;23193;42.656;21.170;2023-07-16T12:23:09;19.73;;;8.75;;
37305;SDS011;23193;42.656;21.170;2023-07-16T12:25:35;17.75;;;7.43;;
37305;SDS011;23193;42.656;21.170;2023-07-16T12:28:01;16.25;;;7.47;;
37305;SDS011;23193;42.656;21.170;2023-07-16T12:30:27;23.00;;;7.03;;
37305;SDS011;23193;42.656;21.170;2023-07-16T12:32:53;23.75;;;7.30;;
37305;SDS011;23193;42.656;21.170;2023-07-16T12:35:19;18.85;;;7.20;;
37305;SDS011;23193;42.656;21.170;2023-07-16T12:37:45;22.92;;;7.75;;
37305;SDS011;23193;42.656;21.170;2023-07-16T12:40:12;23.08;;;7.65;;
37305;SDS011;23193;42.656;21.170;2023-07-16T12:42:38;22.60;;;7.70;;
37305;SDS011;23193;42.656;21.170;2023-07-16T12:45:04;17.17;;;7.00;;
37305;SDS011;23193;42.656;21.170;2023-07-16T12:47:30;16.80;;;7.15;;
37305;SDS011;23193;42.656;21.170;2023-07-16T12:49:57;16.45;;;7.60;;
37305;SDS011;23193;42.656;21.170;2023-07-16T12:52:23;19.00;;;7.07;;
37305;SDS011;23193;42.656;21.170;2023-07-16T12:54:49;22.88;;;8.20;;
37305;SDS011;23193;42.656;21.170;2023-07-16T12:57:16;20.15;;;7.03;;
37305;SDS011;23193;42.656;21.170;2023-07-16T12:59:43;18.38;;;7.35;;
37305;SDS011;23193;42.656;21.170;2023-07-16T13:02:09;19.27;;;7.35;;
37305;SDS011;23193;42.656;21.170;2023-07-16T13:04:35;18.33;;;7.70;;
37305;SDS011;23193;42.656;21.170;2023-07-16T13:07:01;26.33;;;8.48;;
37305;SDS011;23193;42.656;21.170;2023-07-16T13:09:27;24.27;;;7.50;;
37305;SDS011;23193;42.656;21.170;2023-07-16T13:11:53;19.27;;;7.38;;
37305;SDS011;23193;42.656;21.170;2023-07-16T13:14:19;23.73;;;6.57;;
37305;SDS011;23193;42.656;21.170;2023-07-16T13:16:46;23.27;;;7.30;;
37305;SDS011;23193;42.656;21.170;2023-07-16T13:19:12;15.65;;;7.43;;
37305;SDS011;23193;42.656;21.170;2023-07-16T13:21:38;14.77;;;6.43;;
37305;SDS011;23193;42.656;21.170;2023-07-16T13:24:04;14.63;;;6.25;;
37305;SDS011;23193;42.656;21.170;2023-07-16T13:26:30;31.45;;;6.30;;
37305;SDS011;23193;42.656;21.170;2023-07-16T13:28:56;16.33;;;6.97;;
37305;SDS011;23193;42.656;21.170;2023-07-16T13:31:23;23.88;;;7.32;;
37305;SDS011;23193;42.656;21.170;2023-07-16T13:33:49;23.65;;;8.23;;
37305;SDS011;23193;42.656;21.170;2023-07-16T13:36:15;20.92;;;7.28;;
37305;SDS011;23193;42.656;21.170;2023-07-16T13:38:41;15.82;;;7.05;;
37305;SDS011;23193;42.656;21.170;2023-07-16T13:41:07;19.73;;;6.82;;
37305;SDS011;23193;42.656;21.170;2023-07-16T13:43:34;33.45;;;7.13;;
37305;SDS011;23193;42.656;21.170;2023-07-16T13:46:00;43.72;;;7.45;;
37305;SDS011;23193;42.656;21.170;2023-07-16T13:48:27;23.83;;;7.28;;
37305;SDS011;23193;42.656;21.170;2023-07-16T13:50:53;21.77;;;7.30;;
37305;SDS011;23193;42.656;21.170;2023-07-16T13:53:19;20.20;;;6.90;;
37305;SDS011;23193;42.656;21.170;2023-07-16T13:55:45;20.58;;;7.40;;
37305;SDS011;23193;42.656;21.170;2023-07-16T13:58:12;18.70;;;6.53;;
37305;SDS011;23193;42.656;21.170;2023-07-16T14:00:39;27.23;;;7.78;;
37305;SDS011;23193;42.656;21.170;2023-07-16T14:03:06;16.02;;;7.25;;
37305;SDS011;23193;42.656;21.170;2023-07-16T14:05:32;21.73;;;7.10;;
37305;SDS011;23193;42.656;21.170;2023-07-16T14:08:04;13.40;;;6.63;;
37305;SDS011;23193;42.656;21.170;2023-07-16T14:10:30;17.02;;;6.85;;
37305;SDS011;23193;42.656;21.170;2023-07-16T14:12:56;17.55;;;6.30;;
37305;SDS011;23193;42.656;21.170;2023-07-16T14:15:23;20.65;;;6.60;;
37305;SDS011;23193;42.656;21.170;2023-07-16T14:17:49;24.80;;;7.13;;
37305;SDS011;23193;42.656;21.170;2023-07-16T14:20:16;23.23;;;6.78;;